Jose Advincula

Olheiro-Chefe - Sporting Cristal
17 Jul 2027
Sábado
Processo

Personalidade

Adaptabilidade (2) Ambição (10) Controvérsia (12) Lealdade (3) Pressão (18) Profissionalismo (17) Espírito Esportivo (3) Temperamento (10)

Perfil

Estilo de Treinamento Democrático
Licença Continental C
Determinação 12
Gestão de Pessoas 13
Motivação 4
Disciplina 8
Satisfação no Trabalho
81%
Fadiga
0%
Função Olheiro-Chefe
Salário 79.3K p/s
Contrato 14.03.2030

Desempenho

Comportamento Bom
Eficácia do Treinamento
21%
Desenvolvimento do Jogador
30%
Prevenção de Lesões
20%
Implementação Tática
35%

Eventos Recentes

Participou de uma reunião de recrutamento agora
Recomendou um alvo de transferência agora
Participou de uma reunião de recrutamento 7d atrás
Recomendou um alvo de transferência 7d atrás
Recomendou um alvo de transferência 7d atrás
Participou de uma reunião de recrutamento 7d atrás
Participou de uma reunião de recrutamento 14d atrás
Apresentou um dossiê à direção 14d atrás

Monitorando agora

108
Jogador Clube Status Habilidade Confiança Observado Última observação Último voto
Abraham Paintsil Hasaacas Ativo 85 / 102 40% 3 03.06.2027 -
Jonathan Bland Barnsley Ativo 111 / 103 40% 3 03.06.2027 -
Facundo Infante Talleres Ativo 91 / 91 40% 1 03.06.2027 -
Tiago Freitas Benfica Ativo 114 / 132 40% 1 03.06.2027 -
Joel McGregor Swindon Town Ativo 81 / 86 40% 2 02.06.2027 -
Martim Cunha Porto Ativo 89 / 96 40% 1 02.06.2027 -
Simone Kosijer Triestina Ativo 93 / 98 40% 1 02.06.2027 -
Konstantin Tyukavin Arsenal Ativo 132 / 133 66% 1 01.06.2027 Aprovar
Gonzalo Plata Rosenborg Ativo 133 / 134 66% 1 01.06.2027 Aprovar
Riquelme Thompson-Jones Shrewsbury Town Ativo 109 / 109 40% 2 31.05.2027 -
Tobías Ramírez Sevilla Ativo 128 / 114 40% 1 31.05.2027 -
Miguel Figueiredo Benfica Ativo 121 / 117 40% 2 30.05.2027 -
Sam Curtis Swindon Town Ativo 109 / 97 40% 2 30.05.2027 Mais informações
Pietro Reggiori Pro Patria Ativo 85 / 84 40% 1 29.05.2027 -
Leonardo Mendicino Bari Ativo 107 / 123 40% 1 29.05.2027 -
Nahuel Leivas Montevideo City Torque Ativo 109 / 116 40% 2 28.05.2027 -
Ezra Mayers West Ham United Ativo 123 / 122 40% 1 28.05.2027 Mais informações
Thiago Silvero Sevilla Ativo 131 / 138 40% 2 26.05.2027 Mais informações
Facundo Di Biasi Getafe Ativo 120 / 130 40% 1 26.05.2027 -
Samuel Lucero Defensa y Justicia Ativo 108 / 115 40% 1 24.05.2027 -
Jofre Torrents Ajax Ativo 114 / 123 40% 1 24.05.2027 Mais informações
Bakary Haïdara Hearts of Oak Ativo 95 / 112 40% 1 23.05.2027 -
Agustín Obregón River Plate Ativo 115 / 113 40% 1 23.05.2027 Mais informações
Sebastián Flores Rayo Vallecano Ativo 100 / 98 40% 3 21.05.2027 -
Maeson King Blackpool Ativo 106 / 116 40% 2 21.05.2027 Mais informações
Davide Bartesaghi AC Milan Ativo 127 / 121 40% 1 20.05.2027 Mais informações
Matías Gómez Valencia Ativo 115 / 114 40% 2 15.05.2027 Mais informações
Luis Rincon Atletico Venezuela Ativo 100 / 99 40% 1 15.05.2027 -
Celías Ingenthron Platense Ativo 117 / 130 40% 2 14.05.2027 Mais informações
Christos Mouzakitis Hull City Ativo 134 / 150 40% 1 14.05.2027 -
Gonçalo Oliveira Benfica Ativo 119 / 117 40% 1 12.05.2027 -
Jonathan De Irastorza Levante Ativo 126 / 110 40% 1 11.05.2027 -
Gladson Sulemana Liberty Professionals Ativo 85 / 111 40% 1 08.05.2027 -
Sergio Casseres Llaneros Ativo 74 / 74 40% 1 08.05.2027 -
Lucas Jetten Cambuur Ativo 123 / 111 40% 1 06.05.2027 Mais informações
Edmund Inusah WAFA Ativo 69 / 95 40% 1 05.05.2027 -
Ignacio Perruzzi Celta Ativo 136 / 139 40% 2 10.01.2027 -
Taras Mykhavko Dynamo Kyiv Ativo 117 / 122 40% 1 10.01.2027 -
Dylan Lawlor Cardiff City Ativo 100 / 115 40% 1 06.01.2027 -
Zoltan Bese Haladas Ativo 112 / 123 40% 1 06.01.2027 -
Christian Krasnodar Ativo 137 / 132 40% 1 28.12.2026 -
Jack McGlynn Stoke City Ativo 116 / 120 40% 1 28.12.2026 -
Thiago Acosta River Plate Ativo 114 / 121 40% 1 21.12.2026 -
Nicolás Ortiz Leganés Ativo 92 / 100 40% 1 04.12.2026 -
Matías Magdaleno Estudiantes Ativo 98 / 108 40% 1 04.12.2026 -
Claudy M'Buyi Rapid Wien Ativo 122 / 126 40% 3 02.12.2026 -
Ignacio Ovando Rosario Central Ativo 105 / 119 40% 1 02.12.2026 -
Nuno Santos Mamelodi Sundowns Ativo 128 / 130 40% 1 02.12.2026 -
David Miculescu FCSB Ativo 128 / 116 40% 3 29.11.2026 Observar
Wessam Abou Ali Columbus Crew Ativo 119 / 125 40% 1 28.11.2026 -
Andile Manyama Ajax Cape Town Ativo 104 / 90 40% 4 27.11.2026 -
Bahlul Mammadov Inter Ativo 120 / 122 40% 2 27.11.2026 -
Bénie Traoré New York City Ativo 132 / 128 40% 1 27.11.2026 -
Troy Parrott Betis Ativo 124 / 146 40% 7 25.11.2026 -
Wandile Duba Maritzburg United Ativo 103 / 120 40% 1 25.11.2026 -
Ammar Ramadan DAC Dunajska Streda Ativo 113 / 117 40% 3 24.11.2026 -
Juan Carlos Arana Racing Santander Ativo 132 / 139 40% 1 23.11.2026 -
Dario Vizinger NK Maribor Ativo 119 / 106 40% 2 22.11.2026 -
Manu Nieto Andorra Ativo 109 / 123 40% 3 21.11.2026 -
Camilo Durán Bloemfontein Celtic Ativo 116 / 123 40% 3 18.11.2026 -
Fabricio Oviedo Rosario Central Ativo 112 / 108 40% 3 18.11.2026 -
Etiosa Ighodaro Kaizer Chiefs Ativo 108 / 116 40% 4 17.11.2026 -
Xavier Biscayzacú Sporting CP Ativo 131 / 134 40% 2 15.11.2026 -
Gonzalo Córdoba Mitre Ativo 112 / 114 40% 3 13.11.2026 -
Samuel Kalu Botev Plovdiv Ativo 113 / 124 40% 1 09.11.2026 -
Marcelo Torres Gimnasia La Plata Ativo 125 / 122 40% 5 08.11.2026 -
Job Ochieng Real Sociedad Ativo 103 / 108 40% 2 07.11.2026 -
Håkon Evjen Bodo/Glimt Ativo 147 / 137 40% 1 07.11.2026 Mais informações
Reda Khadra Qarabag Ativo 134 / 123 40% 1 06.11.2026 Mais informações
Emi Rodriguez Leon Ativo 118 / 133 40% 1 06.11.2026 Mais informações
Tomás Chancalay Minnesota United FC Ativo 130 / 127 40% 1 04.11.2026 -
Erik Botheim Viking Ativo 132 / 124 40% 1 29.10.2026 -
Liel Abada Charlotte Football Club Ativo 147 / 114 40% 4 26.10.2026 -
Matej Trusa DAC Dunajska Streda Ativo 127 / 117 40% 1 26.10.2026 -
Veljko Birmančević Ferencvaros Ativo 121 / 127 40% 6 25.10.2026 -
José Balza Deportivo Tachira Ativo 113 / 110 40% 2 24.10.2026 -
Brayan Gil Baltika Ativo 113 / 131 40% 5 20.10.2026 -
Oscar Osorio Atletico Venezuela Ativo 106 / 108 40% 3 19.10.2026 -
Tobías Andrada Betis Ativo 127 / 132 40% 1 19.10.2026 -
Enzo Larrosa Independiente Medellin Ativo 106 / 114 40% 2 17.10.2026 -
Karim Konaté Red Bull Salzburg Ativo 134 / 154 40% 1 14.10.2026 -
Román Lozada Vélez Ativo 88 / 104 40% 1 05.10.2026 -
Ignacio Sabatini Gimnasia y Esgrima Ativo 108 / 98 40% 1 03.10.2026 -
Oscar Ferraresi Llaneros Ativo 101 / 112 40% 2 02.10.2026 -
Genaro Rossi San Martín SJ Ativo 111 / 118 40% 2 01.10.2026 -
César Magallan Estudiantes de Merida Ativo 101 / 105 40% 3 29.09.2026 -
Kevin Isa Luna Central Norte Ativo 104 / 101 40% 1 27.09.2026 -
Armstrong Oko-Flex Levski Ativo 118 / 132 40% 2 26.09.2026 -
Ramiro Ruiz Rodríguez Atlético Tucumán Ativo 123 / 114 40% 2 22.09.2026 -
Eric Ramírez Carabobo Ativo 110 / 113 40% 3 20.09.2026 -
Sam Nombe Milton Keynes Dons Ativo 123 / 98 40% 1 16.09.2026 -
Mariano Peralta Bauer Defensa y Justicia Ativo 98 / 110 40% 1 13.09.2026 -
Mateo Acuña Vélez Ativo 95 / 96 40% 1 12.09.2026 -
Inti Borghetto Patronato Ativo 93 / 99 40% 1 12.09.2026 -
Francisco Galván Deportivo Municipal Ativo 113 / 110 40% 1 10.09.2026 Mais informações
Leandro Godoy CSKA Sofia Ativo 123 / 107 40% 2 09.09.2026 -
Adalberto Peñaranda Deportivo Tachira Ativo 116 / 104 40% 1 30.08.2026 -
Federico Girotti Alianza Lima Ativo 112 / 122 40% 3 28.08.2026 -
Lucas González Nacional Ativo 105 / 108 40% 1 27.08.2026 -
Lucas Besozzi Lanús Ativo 122 / 114 40% 2 20.08.2026 -
Yanela Mbuthuma Orlando Pirates Ativo 119 / 101 40% 1 18.08.2026 -
Marcos Camarda Santiago Wanderers Ativo 104 / 113 40% 1 17.08.2026 -
Arthur Sales Mamelodi Sundowns Ativo 118 / 101 40% 1 17.08.2026 -
Luther Tau SuperSport United Ativo 99 / 108 40% 1 10.08.2026 -
Fabricio Rojas Gimnasia y Tiro Ativo 109 / 102 40% 1 09.08.2026 -
Agustín Venezia Iquique Ativo 111 / 102 40% 1 02.08.2026 -
Marcelo Flores Tigres Ativo 109 / 114 40% 1 02.08.2026 -
Hugo Cuypers Monterrey Ativo 136 / 135 40% 1 01.08.2026 -